sensor_id;sensor_type;location;lat;lon;timestamp;P1;durP1;ratioP1;P2;durP2;ratioP2
21806;SDS011;11065;50.786;7.840;2023-06-14T00:02:20;7.20;;;4.37;;
21806;SDS011;11065;50.786;7.840;2023-06-14T00:04:48;5.77;;;3.87;;
21806;SDS011;11065;50.786;7.840;2023-06-14T00:07:20;6.30;;;4.33;;
21806;SDS011;11065;50.786;7.840;2023-06-14T00:10:00;6.57;;;3.83;;
21806;SDS011;11065;50.786;7.840;2023-06-14T00:12:29;4.77;;;3.77;;
21806;SDS011;11065;50.786;7.840;2023-06-14T00:14:58;5.70;;;4.00;;
21806;SDS011;11065;50.786;7.840;2023-06-14T00:17:27;6.27;;;4.13;;
21806;SDS011;11065;50.786;7.840;2023-06-14T00:19:56;7.20;;;4.10;;
21806;SDS011;11065;50.786;7.840;2023-06-14T00:22:25;7.03;;;4.20;;
21806;SDS011;11065;50.786;7.840;2023-06-14T00:24:54;5.17;;;3.90;;
21806;SDS011;11065;50.786;7.840;2023-06-14T00:27:22;5.47;;;4.20;;
21806;SDS011;11065;50.786;7.840;2023-06-14T00:29:51;6.00;;;3.73;;
21806;SDS011;11065;50.786;7.840;2023-06-14T00:32:20;5.73;;;3.63;;
21806;SDS011;11065;50.786;7.840;2023-06-14T00:34:54;8.10;;;3.83;;
21806;SDS011;11065;50.786;7.840;2023-06-14T00:37:22;5.87;;;3.97;;
21806;SDS011;11065;50.786;7.840;2023-06-14T00:39:50;4.40;;;3.80;;
21806;SDS011;11065;50.786;7.840;2023-06-14T00:42:25;5.13;;;4.07;;
21806;SDS011;11065;50.786;7.840;2023-06-14T00:44:53;5.93;;;4.27;;
21806;SDS011;11065;50.786;7.840;2023-06-14T00:47:23;6.60;;;3.90;;
21806;SDS011;11065;50.786;7.840;2023-06-14T00:49:51;5.77;;;4.17;;
21806;SDS011;11065;50.786;7.840;2023-06-14T00:52:22;5.30;;;4.23;;
21806;SDS011;11065;50.786;7.840;2023-06-14T00:54:50;5.17;;;4.00;;
21806;SDS011;11065;50.786;7.840;2023-06-14T00:57:18;5.50;;;4.07;;
21806;SDS011;11065;50.786;7.840;2023-06-14T00:59:48;6.87;;;4.63;;
21806;SDS011;11065;50.786;7.840;2023-06-14T01:02:17;5.87;;;4.40;;
21806;SDS011;11065;50.786;7.840;2023-06-14T01:04:47;4.93;;;4.30;;
21806;SDS011;11065;50.786;7.840;2023-06-14T01:07:18;6.33;;;4.00;;
21806;SDS011;11065;50.786;7.840;2023-06-14T01:09:57;5.60;;;4.33;;
21806;SDS011;11065;50.786;7.840;2023-06-14T01:12:35;4.50;;;3.83;;
21806;SDS011;11065;50.786;7.840;2023-06-14T01:15:08;4.53;;;3.90;;
21806;SDS011;11065;50.786;7.840;2023-06-14T01:17:37;5.10;;;4.00;;
21806;SDS011;11065;50.786;7.840;2023-06-14T01:20:12;5.20;;;3.70;;
21806;SDS011;11065;50.786;7.840;2023-06-14T01:22:51;6.03;;;3.83;;
21806;SDS011;11065;50.786;7.840;2023-06-14T01:25:20;4.70;;;3.57;;
21806;SDS011;11065;50.786;7.840;2023-06-14T01:27:50;4.83;;;3.90;;
21806;SDS011;11065;50.786;7.840;2023-06-14T01:30:20;5.93;;;4.37;;
21806;SDS011;11065;50.786;7.840;2023-06-14T01:32:48;8.67;;;4.80;;
21806;SDS011;11065;50.786;7.840;2023-06-14T01:35:17;5.80;;;4.00;;
21806;SDS011;11065;50.786;7.840;2023-06-14T01:37:48;5.73;;;4.20;;
21806;SDS011;11065;50.786;7.840;2023-06-14T01:40:18;5.80;;;4.37;;
21806;SDS011;11065;50.786;7.840;2023-06-14T01:42:49;5.67;;;4.03;;
21806;SDS011;11065;50.786;7.840;2023-06-14T01:45:18;5.53;;;4.50;;
21806;SDS011;11065;50.786;7.840;2023-06-14T01:47:47;7.47;;;4.50;;
21806;SDS011;11065;50.786;7.840;2023-06-14T01:50:16;6.93;;;4.80;;
21806;SDS011;11065;50.786;7.840;2023-06-14T01:52:46;5.40;;;4.20;;
21806;SDS011;11065;50.786;7.840;2023-06-14T01:55:16;5.30;;;4.73;;
21806;SDS011;11065;50.786;7.840;2023-06-14T01:57:44;6.93;;;4.87;;
21806;SDS011;11065;50.786;7.840;2023-06-14T02:00:13;6.27;;;4.70;;
21806;SDS011;11065;50.786;7.840;2023-06-14T02:02:42;5.33;;;4.43;;
21806;SDS011;11065;50.786;7.840;2023-06-14T02:05:10;5.67;;;4.57;;
21806;SDS011;11065;50.786;7.840;2023-06-14T02:07:40;6.87;;;4.40;;
21806;SDS011;11065;50.786;7.840;2023-06-14T02:10:08;6.77;;;4.43;;
21806;SDS011;11065;50.786;7.840;2023-06-14T02:12:38;6.77;;;4.73;;
21806;SDS011;11065;50.786;7.840;2023-06-14T02:15:06;6.30;;;4.60;;
21806;SDS011;11065;50.786;7.840;2023-06-14T02:17:35;5.60;;;4.40;;
21806;SDS011;11065;50.786;7.840;2023-06-14T02:20:05;7.17;;;4.63;;
21806;SDS011;11065;50.786;7.840;2023-06-14T02:22:35;6.03;;;4.27;;
21806;SDS011;11065;50.786;7.840;2023-06-14T02:25:06;9.10;;;4.93;;
21806;SDS011;11065;50.786;7.840;2023-06-14T02:27:35;5.63;;;4.57;;
21806;SDS011;11065;50.786;7.840;2023-06-14T02:30:05;6.40;;;5.23;;
21806;SDS011;11065;50.786;7.840;2023-06-14T02:32:34;5.90;;;4.70;;
21806;SDS011;11065;50.786;7.840;2023-06-14T02:35:04;7.63;;;4.70;;
21806;SDS011;11065;50.786;7.840;2023-06-14T02:37:34;5.77;;;4.07;;
21806;SDS011;11065;50.786;7.840;2023-06-14T02:40:02;7.57;;;4.57;;
21806;SDS011;11065;50.786;7.840;2023-06-14T02:42:32;6.00;;;4.53;;
21806;SDS011;11065;50.786;7.840;2023-06-14T02:45:00;7.80;;;4.83;;
21806;SDS011;11065;50.786;7.840;2023-06-14T02:47:30;6.40;;;4.53;;
21806;SDS011;11065;50.786;7.840;2023-06-14T02:49:58;6.57;;;4.37;;
21806;SDS011;11065;50.786;7.840;2023-06-14T02:52:26;6.40;;;4.73;;
21806;SDS011;11065;50.786;7.840;2023-06-14T02:54:54;6.93;;;4.60;;
21806;SDS011;11065;50.786;7.840;2023-06-14T02:57:22;6.10;;;4.30;;
21806;SDS011;11065;50.786;7.840;2023-06-14T02:59:51;6.10;;;4.43;;
21806;SDS011;11065;50.786;7.840;2023-06-14T03:02:19;5.57;;;4.17;;
21806;SDS011;11065;50.786;7.840;2023-06-14T03:04:48;6.37;;;4.40;;
21806;SDS011;11065;50.786;7.840;2023-06-14T03:07:18;6.77;;;4.30;;
21806;SDS011;11065;50.786;7.840;2023-06-14T03:09:50;5.60;;;3.97;;
21806;SDS011;11065;50.786;7.840;2023-06-14T03:12:19;6.63;;;3.87;;
21806;SDS011;11065;50.786;7.840;2023-06-14T03:14:47;5.47;;;3.90;;
21806;SDS011;11065;50.786;7.840;2023-06-14T03:17:20;5.27;;;4.00;;
21806;SDS011;11065;50.786;7.840;2023-06-14T03:19:50;5.50;;;3.90;;
21806;SDS011;11065;50.786;7.840;2023-06-14T03:22:18;5.27;;;3.87;;
21806;SDS011;11065;50.786;7.840;2023-06-14T03:24:46;6.77;;;3.87;;
21806;SDS011;11065;50.786;7.840;2023-06-14T03:27:14;6.10;;;3.60;;
21806;SDS011;11065;50.786;7.840;2023-06-14T03:29:44;7.73;;;3.90;;
21806;SDS011;11065;50.786;7.840;2023-06-14T03:32:12;5.00;;;4.10;;
21806;SDS011;11065;50.786;7.840;2023-06-14T03:34:42;4.90;;;3.90;;
21806;SDS011;11065;50.786;7.840;2023-06-14T03:37:19;5.87;;;3.77;;
21806;SDS011;11065;50.786;7.840;2023-06-14T03:39:47;6.67;;;4.43;;
21806;SDS011;11065;50.786;7.840;2023-06-14T03:42:19;5.37;;;3.97;;
21806;SDS011;11065;50.786;7.840;2023-06-14T03:44:48;6.17;;;4.00;;
21806;SDS011;11065;50.786;7.840;2023-06-14T03:47:18;5.83;;;3.67;;
21806;SDS011;11065;50.786;7.840;2023-06-14T03:49:46;4.90;;;3.90;;
21806;SDS011;11065;50.786;7.840;2023-06-14T03:52:14;4.87;;;3.97;;
21806;SDS011;11065;50.786;7.840;2023-06-14T03:54:46;6.97;;;4.43;;
21806;SDS011;11065;50.786;7.840;2023-06-14T03:57:18;5.90;;;4.03;;
21806;SDS011;11065;50.786;7.840;2023-06-14T03:59:48;4.70;;;3.67;;
21806;SDS011;11065;50.786;7.840;2023-06-14T04:02:16;4.63;;;3.80;;
21806;SDS011;11065;50.786;7.840;2023-06-14T04:04:44;6.33;;;4.07;;
21806;SDS011;11065;50.786;7.840;2023-06-14T04:07:13;4.57;;;3.83;;
21806;SDS011;11065;50.786;7.840;2023-06-14T04:09:42;5.57;;;4.03;;
21806;SDS011;11065;50.786;7.840;2023-06-14T04:12:11;5.83;;;3.83;;
21806;SDS011;11065;50.786;7.840;2023-06-14T04:14:40;8.10;;;4.17;;
21806;SDS011;11065;50.786;7.840;2023-06-14T04:17:09;6.27;;;3.90;;
21806;SDS011;11065;50.786;7.840;2023-06-14T04:19:39;6.73;;;3.83;;
21806;SDS011;11065;50.786;7.840;2023-06-14T04:22:07;4.23;;;3.70;;
21806;SDS011;11065;50.786;7.840;2023-06-14T04:24:37;5.63;;;4.10;;
21806;SDS011;11065;50.786;7.840;2023-06-14T04:27:05;5.40;;;4.03;;
21806;SDS011;11065;50.786;7.840;2023-06-14T04:29:37;8.53;;;3.90;;
21806;SDS011;11065;50.786;7.840;2023-06-14T04:32:09;6.27;;;4.43;;
21806;SDS011;11065;50.786;7.840;2023-06-14T04:34:39;6.90;;;4.10;;
21806;SDS011;11065;50.786;7.840;2023-06-14T04:37:10;5.63;;;4.53;;
21806;SDS011;11065;50.786;7.840;2023-06-14T04:39:41;5.07;;;4.10;;
21806;SDS011;11065;50.786;7.840;2023-06-14T04:42:09;6.30;;;4.13;;
21806;SDS011;11065;50.786;7.840;2023-06-14T04:44:39;6.73;;;4.57;;
21806;SDS011;11065;50.786;7.840;2023-06-14T04:47:07;5.97;;;4.33;;
21806;SDS011;11065;50.786;7.840;2023-06-14T04:49:36;6.27;;;4.40;;
21806;SDS011;11065;50.786;7.840;2023-06-14T04:52:04;7.73;;;4.87;;
21806;SDS011;11065;50.786;7.840;2023-06-14T04:54:35;6.73;;;4.50;;
21806;SDS011;11065;50.786;7.840;2023-06-14T04:57:07;6.53;;;4.17;;
21806;SDS011;11065;50.786;7.840;2023-06-14T04:59:42;5.17;;;4.30;;
21806;SDS011;11065;50.786;7.840;2023-06-14T05:02:11;6.63;;;4.17;;
21806;SDS011;11065;50.786;7.840;2023-06-14T05:04:39;9.97;;;4.20;;
21806;SDS011;11065;50.786;7.840;2023-06-14T05:07:07;7.40;;;4.10;;
21806;SDS011;11065;50.786;7.840;2023-06-14T05:09:36;6.83;;;4.10;;
21806;SDS011;11065;50.786;7.840;2023-06-14T05:12:05;6.27;;;4.47;;
21806;SDS011;11065;50.786;7.840;2023-06-14T05:14:34;6.53;;;4.60;;
21806;SDS011;11065;50.786;7.840;2023-06-14T05:17:06;5.17;;;3.80;;
21806;SDS011;11065;50.786;7.840;2023-06-14T05:19:34;6.50;;;3.90;;
21806;SDS011;11065;50.786;7.840;2023-06-14T05:22:03;6.97;;;4.43;;
21806;SDS011;11065;50.786;7.840;2023-06-14T05:24:31;8.63;;;3.80;;
21806;SDS011;11065;50.786;7.840;2023-06-14T05:27:00;6.50;;;3.83;;
21806;SDS011;11065;50.786;7.840;2023-06-14T05:29:28;5.57;;;4.00;;
21806;SDS011;11065;50.786;7.840;2023-06-14T05:31:56;6.00;;;4.20;;
21806;SDS011;11065;50.786;7.840;2023-06-14T05:34:26;7.47;;;3.93;;
21806;SDS011;11065;50.786;7.840;2023-06-14T05:36:54;6.30;;;4.17;;
21806;SDS011;11065;50.786;7.840;2023-06-14T05:39:22;4.63;;;3.30;;
21806;SDS011;11065;50.786;7.840;2023-06-14T05:41:51;4.87;;;3.43;;
21806;SDS011;11065;50.786;7.840;2023-06-14T05:44:19;5.10;;;3.10;;
21806;SDS011;11065;50.786;7.840;2023-06-14T05:46:47;5.27;;;3.43;;
21806;SDS011;11065;50.786;7.840;2023-06-14T05:49:15;6.27;;;3.43;;
21806;SDS011;11065;50.786;7.840;2023-06-14T05:51:44;6.17;;;3.40;;
21806;SDS011;11065;50.786;7.840;2023-06-14T05:54:12;7.43;;;3.63;;
21806;SDS011;11065;50.786;7.840;2023-06-14T05:56:40;4.50;;;3.60;;
21806;SDS011;11065;50.786;7.840;2023-06-14T05:59:08;5.50;;;2.90;;
21806;SDS011;11065;50.786;7.840;2023-06-14T06:01:36;6.37;;;3.37;;
21806;SDS011;11065;50.786;7.840;2023-06-14T06:04:06;4.90;;;3.20;;
21806;SDS011;11065;50.786;7.840;2023-06-14T06:06:34;4.23;;;3.07;;
21806;SDS011;11065;50.786;7.840;2023-06-14T06:09:04;3.63;;;2.80;;
21806;SDS011;11065;50.786;7.840;2023-06-14T06:11:33;3.83;;;2.50;;
21806;SDS011;11065;50.786;7.840;2023-06-14T06:14:17;5.00;;;2.90;;
21806;SDS011;11065;50.786;7.840;2023-06-14T06:16:45;4.73;;;2.70;;
21806;SDS011;11065;50.786;7.840;2023-06-14T06:19:14;3.80;;;2.57;;
21806;SDS011;11065;50.786;7.840;2023-06-14T06:21:42;3.63;;;2.07;;
21806;SDS011;11065;50.786;7.840;2023-06-14T06:24:11;5.33;;;2.60;;
21806;SDS011;11065;50.786;7.840;2023-06-14T06:26:39;5.77;;;2.50;;
21806;SDS011;11065;50.786;7.840;2023-06-14T06:29:07;3.87;;;2.17;;
21806;SDS011;11065;50.786;7.840;2023-06-14T06:31:35;4.47;;;2.43;;
21806;SDS011;11065;50.786;7.840;2023-06-14T06:34:03;7.23;;;2.50;;
21806;SDS011;11065;50.786;7.840;2023-06-14T06:36:32;2.87;;;1.97;;
21806;SDS011;11065;50.786;7.840;2023-06-14T06:38:59;3.87;;;2.10;;
21806;SDS011;11065;50.786;7.840;2023-06-14T06:41:29;4.67;;;2.20;;
21806;SDS011;11065;50.786;7.840;2023-06-14T06:43:57;3.53;;;1.57;;
21806;SDS011;11065;50.786;7.840;2023-06-14T06:46:28;5.10;;;2.10;;
21806;SDS011;11065;50.786;7.840;2023-06-14T06:48:56;5.03;;;2.13;;
21806;SDS011;11065;50.786;7.840;2023-06-14T06:51:24;5.20;;;2.07;;
21806;SDS011;11065;50.786;7.840;2023-06-14T06:53:52;3.90;;;2.20;;
21806;SDS011;11065;50.786;7.840;2023-06-14T06:56:21;4.50;;;2.20;;
21806;SDS011;11065;50.786;7.840;2023-06-14T06:58:50;3.87;;;2.17;;
21806;SDS011;11065;50.786;7.840;2023-06-14T08:12:07;5.00;;;1.80;;
21806;SDS011;11065;50.786;7.840;2023-06-14T08:14:36;5.57;;;1.57;;
21806;SDS011;11065;50.786;7.840;2023-06-14T08:17:04;2.40;;;1.57;;
21806;SDS011;11065;50.786;7.840;2023-06-14T08:19:32;2.07;;;1.50;;
21806;SDS011;11065;50.786;7.840;2023-06-14T08:22:01;2.40;;;1.60;;
21806;SDS011;11065;50.786;7.840;2023-06-14T08:24:30;3.00;;;1.80;;
21806;SDS011;11065;50.786;7.840;2023-06-14T08:26:58;2.10;;;1.50;;
21806;SDS011;11065;50.786;7.840;2023-06-14T08:29:29;2.63;;;1.57;;
21806;SDS011;11065;50.786;7.840;2023-06-14T08:31:57;1.90;;;1.40;;
21806;SDS011;11065;50.786;7.840;2023-06-14T08:34:25;1.97;;;1.50;;
21806;SDS011;11065;50.786;7.840;2023-06-14T08:36:53;3.40;;;1.50;;
21806;SDS011;11065;50.786;7.840;2023-06-14T08:39:21;2.70;;;1.43;;
21806;SDS011;11065;50.786;7.840;2023-06-14T08:41:50;4.40;;;1.07;;
21806;SDS011;11065;50.786;7.840;2023-06-14T08:44:20;3.50;;;1.53;;
21806;SDS011;11065;50.786;7.840;2023-06-14T08:46:49;2.73;;;1.40;;
21806;SDS011;11065;50.786;7.840;2023-06-14T08:49:19;2.47;;;1.40;;
21806;SDS011;11065;50.786;7.840;2023-06-14T08:51:50;2.30;;;1.33;;
21806;SDS011;11065;50.786;7.840;2023-06-14T08:54:24;2.47;;;1.20;;
21806;SDS011;11065;50.786;7.840;2023-06-14T08:56:56;1.97;;;1.13;;
21806;SDS011;11065;50.786;7.840;2023-06-14T08:59:25;1.50;;;1.10;;
21806;SDS011;11065;50.786;7.840;2023-06-14T09:01:55;1.63;;;1.10;;
21806;SDS011;11065;50.786;7.840;2023-06-14T09:04:37;2.47;;;1.20;;
21806;SDS011;11065;50.786;7.840;2023-06-14T09:07:05;2.17;;;1.07;;
21806;SDS011;11065;50.786;7.840;2023-06-14T09:09:36;2.70;;;1.20;;
21806;SDS011;11065;50.786;7.840;2023-06-14T09:12:13;2.77;;;1.13;;
21806;SDS011;11065;50.786;7.840;2023-06-14T09:14:41;1.70;;;1.13;;
21806;SDS011;11065;50.786;7.840;2023-06-14T09:17:12;2.17;;;1.20;;
21806;SDS011;11065;50.786;7.840;2023-06-14T09:19:41;3.07;;;1.30;;
21806;SDS011;11065;50.786;7.840;2023-06-14T09:22:10;2.43;;;1.30;;
21806;SDS011;11065;50.786;7.840;2023-06-14T09:24:39;2.90;;;1.30;;
21806;SDS011;11065;50.786;7.840;2023-06-14T09:27:13;1.73;;;1.10;;
21806;SDS011;11065;50.786;7.840;2023-06-14T09:29:43;2.23;;;0.93;;
21806;SDS011;11065;50.786;7.840;2023-06-14T09:32:12;1.50;;;0.93;;
21806;SDS011;11065;50.786;7.840;2023-06-14T09:34:40;1.63;;;0.90;;
21806;SDS011;11065;50.786;7.840;2023-06-14T09:37:08;2.28;;;0.82;;
21806;SDS011;11065;50.786;7.840;2023-06-14T09:39:43;2.53;;;1.00;;
21806;SDS011;11065;50.786;7.840;2023-06-14T09:42:17;2.60;;;1.05;;
21806;SDS011;11065;50.786;7.840;2023-06-14T09:44:46;1.02;;;0.75;;
21806;SDS011;11065;50.786;7.840;2023-06-14T09:47:17;1.90;;;1.00;;
21806;SDS011;11065;50.786;7.840;2023-06-14T09:49:45;4.40;;;1.45;;
21806;SDS011;11065;50.786;7.840;2023-06-14T09:52:14;1.13;;;0.82;;
21806;SDS011;11065;50.786;7.840;2023-06-14T09:54:44;2.10;;;0.95;;
21806;SDS011;11065;50.786;7.840;2023-06-14T09:57:14;2.63;;;1.20;;
21806;SDS011;11065;50.786;7.840;2023-06-14T09:59:44;8.13;;;3.58;;
21806;SDS011;11065;50.786;7.840;2023-06-14T10:02:18;7.45;;;3.67;;
21806;SDS011;11065;50.786;7.840;2023-06-14T10:04:55;4.80;;;2.53;;
21806;SDS011;11065;50.786;7.840;2023-06-14T10:07:28;4.53;;;1.88;;
21806;SDS011;11065;50.786;7.840;2023-06-14T10:09:59;2.63;;;1.58;;
21806;SDS011;11065;50.786;7.840;2023-06-14T10:12:27;3.28;;;1.15;;
21806;SDS011;11065;50.786;7.840;2023-06-14T10:14:55;2.35;;;1.20;;
21806;SDS011;11065;50.786;7.840;2023-06-14T10:17:27;1.88;;;0.90;;
21806;SDS011;11065;50.786;7.840;2023-06-14T10:20:16;1.63;;;0.93;;
21806;SDS011;11065;50.786;7.840;2023-06-14T10:22:58;1.77;;;0.77;;
21806;SDS011;11065;50.786;7.840;2023-06-14T10:25:29;1.00;;;0.70;;
21806;SDS011;11065;50.786;7.840;2023-06-14T10:28:17;0.90;;;0.70;;
21806;SDS011;11065;50.786;7.840;2023-06-14T10:31:07;1.27;;;0.80;;
21806;SDS011;11065;50.786;7.840;2023-06-14T10:33:48;1.02;;;0.90;;
21806;SDS011;11065;50.786;7.840;2023-06-14T10:36:24;0.95;;;0.70;;
21806;SDS011;11065;50.786;7.840;2023-06-14T10:38:57;5.40;;;1.10;;
21806;SDS011;11065;50.786;7.840;2023-06-14T10:41:26;1.20;;;0.90;;
21806;SDS011;11065;50.786;7.840;2023-06-14T10:47:07;1.63;;;0.90;;
21806;SDS011;11065;50.786;7.840;2023-06-14T10:49:39;1.70;;;1.00;;
21806;SDS011;11065;50.786;7.840;2023-06-14T10:52:10;1.60;;;1.13;;
21806;SDS011;11065;50.786;7.840;2023-06-14T10:55:03;1.63;;;1.00;;
21806;SDS011;11065;50.786;7.840;2023-06-14T10:57:39;2.58;;;1.00;;
21806;SDS011;11065;50.786;7.840;2023-06-14T11:00:11;3.42;;;1.25;;
21806;SDS011;11065;50.786;7.840;2023-06-14T11:05:51;1.55;;;1.15;;
21806;SDS011;11065;50.786;7.840;2023-06-14T11:11:38;1.00;;;0.80;;
21806;SDS011;11065;50.786;7.840;2023-06-14T11:14:10;1.75;;;1.00;;
21806;SDS011;11065;50.786;7.840;2023-06-14T11:16:38;3.88;;;1.00;;
21806;SDS011;11065;50.786;7.840;2023-06-14T11:19:07;1.65;;;1.15;;
21806;SDS011;11065;50.786;7.840;2023-06-14T11:21:39;4.35;;;1.00;;
21806;SDS011;11065;50.786;7.840;2023-06-14T11:24:09;2.67;;;1.30;;
21806;SDS011;11065;50.786;7.840;2023-06-14T11:26:38;1.65;;;1.00;;
21806;SDS011;11065;50.786;7.840;2023-06-14T11:29:07;3.05;;;1.55;;
21806;SDS011;11065;50.786;7.840;2023-06-14T11:31:35;2.53;;;1.50;;
21806;SDS011;11065;50.786;7.840;2023-06-14T11:34:04;1.38;;;1.17;;
21806;SDS011;11065;50.786;7.840;2023-06-14T11:36:34;1.80;;;1.25;;
21806;SDS011;11065;50.786;7.840;2023-06-14T11:39:02;4.20;;;1.10;;
21806;SDS011;11065;50.786;7.840;2023-06-14T11:41:34;3.17;;;1.05;;
21806;SDS011;11065;50.786;7.840;2023-06-14T11:44:04;1.10;;;0.90;;
21806;SDS011;11065;50.786;7.840;2023-06-14T11:46:32;2.17;;;1.30;;
21806;SDS011;11065;50.786;7.840;2023-06-14T11:49:00;1.40;;;0.93;;
21806;SDS011;11065;50.786;7.840;2023-06-14T11:51:30;5.43;;;1.10;;
21806;SDS011;11065;50.786;7.840;2023-06-14T11:54:00;2.17;;;1.27;;
21806;SDS011;11065;50.786;7.840;2023-06-14T11:56:30;1.10;;;1.00;;
21806;SDS011;11065;50.786;7.840;2023-06-14T11:58:59;1.48;;;1.10;;
21806;SDS011;11065;50.786;7.840;2023-06-14T12:01:29;3.22;;;1.15;;
21806;SDS011;11065;50.786;7.840;2023-06-14T12:03:57;2.13;;;1.33;;
21806;SDS011;11065;50.786;7.840;2023-06-14T12:06:28;1.70;;;1.10;;
21806;SDS011;11065;50.786;7.840;2023-06-14T12:09:02;1.80;;;1.30;;
21806;SDS011;11065;50.786;7.840;2023-06-14T12:11:33;2.28;;;1.40;;
21806;SDS011;11065;50.786;7.840;2023-06-14T12:14:03;2.88;;;1.67;;
21806;SDS011;11065;50.786;7.840;2023-06-14T12:16:32;2.42;;;1.05;;
21806;SDS011;11065;50.786;7.840;2023-06-14T12:19:07;1.50;;;1.30;;
21806;SDS011;11065;50.786;7.840;2023-06-14T12:21:37;1.77;;;1.10;;
21806;SDS011;11065;50.786;7.840;2023-06-14T12:24:08;1.42;;;1.00;;
21806;SDS011;11065;50.786;7.840;2023-06-14T12:26:39;1.73;;;1.08;;
21806;SDS011;11065;50.786;7.840;2023-06-14T12:29:08;2.05;;;1.10;;
21806;SDS011;11065;50.786;7.840;2023-06-14T12:31:36;1.80;;;0.90;;
21806;SDS011;11065;50.786;7.840;2023-06-14T12:34:05;1.63;;;1.05;;
21806;SDS011;11065;50.786;7.840;2023-06-14T12:36:33;1.60;;;1.08;;
21806;SDS011;11065;50.786;7.840;2023-06-14T12:39:07;2.75;;;1.02;;
21806;SDS011;11065;50.786;7.840;2023-06-14T12:41:35;2.72;;;1.20;;
21806;SDS011;11065;50.786;7.840;2023-06-14T12:44:04;2.33;;;1.20;;
21806;SDS011;11065;50.786;7.840;2023-06-14T12:46:32;2.25;;;1.10;;
21806;SDS011;11065;50.786;7.840;2023-06-14T12:49:01;2.88;;;1.13;;
21806;SDS011;11065;50.786;7.840;2023-06-14T12:51:29;3.17;;;1.20;;
21806;SDS011;11065;50.786;7.840;2023-06-14T12:53:57;3.97;;;1.15;;
21806;SDS011;11065;50.786;7.840;2023-06-14T12:56:27;1.95;;;1.30;;
21806;SDS011;11065;50.786;7.840;2023-06-14T12:58:55;2.15;;;1.23;;
21806;SDS011;11065;50.786;7.840;2023-06-14T13:01:23;2.50;;;1.23;;
21806;SDS011;11065;50.786;7.840;2023-06-14T13:03:51;1.95;;;1.33;;
21806;SDS011;11065;50.786;7.840;2023-06-14T13:06:20;3.95;;;1.13;;
21806;SDS011;11065;50.786;7.840;2023-06-14T13:08:49;2.45;;;1.30;;
21806;SDS011;11065;50.786;7.840;2023-06-14T13:11:17;2.45;;;1.23;;
21806;SDS011;11065;50.786;7.840;2023-06-14T13:13:46;1.50;;;1.25;;
21806;SDS011;11065;50.786;7.840;2023-06-14T13:16:14;1.95;;;1.10;;
21806;SDS011;11065;50.786;7.840;2023-06-14T13:18:42;3.90;;;1.20;;
21806;SDS011;11065;50.786;7.840;2023-06-14T13:21:10;1.40;;;1.15;;
21806;SDS011;11065;50.786;7.840;2023-06-14T13:23:38;2.40;;;1.42;;
21806;SDS011;11065;50.786;7.840;2023-06-14T13:26:07;1.73;;;1.33;;
21806;SDS011;11065;50.786;7.840;2023-06-14T13:28:36;2.08;;;1.42;;
21806;SDS011;11065;50.786;7.840;2023-06-14T13:31:05;2.17;;;1.30;;
21806;SDS011;11065;50.786;7.840;2023-06-14T13:33:33;1.92;;;1.40;;
21806;SDS011;11065;50.786;7.840;2023-06-14T13:36:01;2.30;;;1.33;;
21806;SDS011;11065;50.786;7.840;2023-06-14T13:38:29;3.10;;;1.52;;
21806;SDS011;11065;50.786;7.840;2023-06-14T13:40:57;1.60;;;1.45;;
21806;SDS011;11065;50.786;7.840;2023-06-14T13:43:26;1.52;;;1.20;;
21806;SDS011;11065;50.786;7.840;2023-06-14T13:45:54;1.83;;;1.30;;
21806;SDS011;11065;50.786;7.840;2023-06-14T13:48:23;1.85;;;1.40;;
21806;SDS011;11065;50.786;7.840;2023-06-14T13:50:51;2.90;;;1.50;;
21806;SDS011;11065;50.786;7.840;2023-06-14T13:53:19;2.40;;;1.50;;
21806;SDS011;11065;50.786;7.840;2023-06-14T13:55:47;2.65;;;1.60;;
21806;SDS011;11065;50.786;7.840;2023-06-14T13:58:15;4.10;;;1.48;;
21806;SDS011;11065;50.786;7.840;2023-06-14T14:00:43;2.72;;;1.50;;
21806;SDS011;11065;50.786;7.840;2023-06-14T14:03:11;2.75;;;1.70;;
21806;SDS011;11065;50.786;7.840;2023-06-14T14:05:40;1.55;;;1.38;;
21806;SDS011;11065;50.786;7.840;2023-06-14T14:08:08;3.03;;;1.48;;
21806;SDS011;11065;50.786;7.840;2023-06-14T14:10:36;4.15;;;1.58;;
21806;SDS011;11065;50.786;7.840;2023-06-14T14:13:04;2.00;;;1.30;;
21806;SDS011;11065;50.786;7.840;2023-06-14T14:15:32;2.40;;;1.45;;
21806;SDS011;11065;50.786;7.840;2023-06-14T14:18:01;2.17;;;1.35;;
21806;SDS011;11065;50.786;7.840;2023-06-14T14:20:30;1.73;;;1.25;;
21806;SDS011;11065;50.786;7.840;2023-06-14T14:22:59;1.98;;;1.40;;
21806;SDS011;11065;50.786;7.840;2023-06-14T14:25:28;3.40;;;1.60;;
21806;SDS011;11065;50.786;7.840;2023-06-14T14:27:56;1.95;;;1.40;;
21806;SDS011;11065;50.786;7.840;2023-06-14T14:30:24;2.55;;;1.63;;
21806;SDS011;11065;50.786;7.840;2023-06-14T14:32:52;2.25;;;1.48;;
21806;SDS011;11065;50.786;7.840;2023-06-14T14:35:20;2.45;;;1.50;;
21806;SDS011;11065;50.786;7.840;2023-06-14T14:37:51;1.65;;;1.30;;
21806;SDS011;11065;50.786;7.840;2023-06-14T14:40:21;1.63;;;1.40;;
21806;SDS011;11065;50.786;7.840;2023-06-14T14:42:49;4.78;;;1.60;;
21806;SDS011;11065;50.786;7.840;2023-06-14T14:45:17;3.38;;;1.58;;
21806;SDS011;11065;50.786;7.840;2023-06-14T14:47:45;1.75;;;1.30;;
21806;SDS011;11065;50.786;7.840;2023-06-14T14:50:14;2.10;;;1.60;;
21806;SDS011;11065;50.786;7.840;2023-06-14T14:52:43;2.20;;;1.70;;
21806;SDS011;11065;50.786;7.840;2023-06-14T14:55:12;4.43;;;1.75;;
21806;SDS011;11065;50.786;7.840;2023-06-14T14:57:41;2.28;;;1.70;;
21806;SDS011;11065;50.786;7.840;2023-06-14T15:00:11;2.15;;;1.65;;
21806;SDS011;11065;50.786;7.840;2023-06-14T15:02:39;3.15;;;1.60;;
21806;SDS011;11065;50.786;7.840;2023-06-14T15:05:08;3.10;;;1.55;;
21806;SDS011;11065;50.786;7.840;2023-06-14T15:07:36;2.25;;;1.38;;
21806;SDS011;11065;50.786;7.840;2023-06-14T15:10:06;3.47;;;1.88;;
21806;SDS011;11065;50.786;7.840;2023-06-14T15:12:35;2.85;;;1.65;;
21806;SDS011;11065;50.786;7.840;2023-06-14T15:15:05;2.10;;;1.55;;
21806;SDS011;11065;50.786;7.840;2023-06-14T15:17:35;3.15;;;1.65;;
21806;SDS011;11065;50.786;7.840;2023-06-14T15:20:04;2.45;;;1.55;;
21806;SDS011;11065;50.786;7.840;2023-06-14T15:22:33;2.67;;;1.85;;
21806;SDS011;11065;50.786;7.840;2023-06-14T15:25:01;2.35;;;1.73;;
21806;SDS011;11065;50.786;7.840;2023-06-14T15:27:29;2.67;;;1.42;;
21806;SDS011;11065;50.786;7.840;2023-06-14T15:29:57;2.97;;;1.88;;
21806;SDS011;11065;50.786;7.840;2023-06-14T15:32:27;3.05;;;1.95;;
21806;SDS011;11065;50.786;7.840;2023-06-14T15:34:55;3.60;;;2.10;;
21806;SDS011;11065;50.786;7.840;2023-06-14T15:37:23;3.35;;;1.92;;
21806;SDS011;11065;50.786;7.840;2023-06-14T15:39:51;2.15;;;1.60;;
21806;SDS011;11065;50.786;7.840;2023-06-14T15:42:19;1.58;;;1.30;;
21806;SDS011;11065;50.786;7.840;2023-06-14T15:44:47;2.30;;;1.90;;
21806;SDS011;11065;50.786;7.840;2023-06-14T15:47:15;3.85;;;1.90;;
21806;SDS011;11065;50.786;7.840;2023-06-14T15:49:44;2.17;;;1.67;;
21806;SDS011;11065;50.786;7.840;2023-06-14T15:52:12;3.17;;;1.70;;
21806;SDS011;11065;50.786;7.840;2023-06-14T15:54:41;3.60;;;1.85;;
21806;SDS011;11065;50.786;7.840;2023-06-14T15:57:08;2.50;;;1.70;;
21806;SDS011;11065;50.786;7.840;2023-06-14T15:59:37;2.10;;;1.65;;
21806;SDS011;11065;50.786;7.840;2023-06-14T16:02:05;2.45;;;1.55;;
21806;SDS011;11065;50.786;7.840;2023-06-14T16:04:33;3.88;;;1.98;;
21806;SDS011;11065;50.786;7.840;2023-06-14T16:07:03;2.28;;;1.73;;
21806;SDS011;11065;50.786;7.840;2023-06-14T16:09:31;7.38;;;2.00;;
21806;SDS011;11065;50.786;7.840;2023-06-14T16:11:59;5.68;;;3.05;;
21806;SDS011;11065;50.786;7.840;2023-06-14T16:14:28;7.53;;;3.15;;
21806;SDS011;11065;50.786;7.840;2023-06-14T16:16:56;6.03;;;2.90;;
21806;SDS011;11065;50.786;7.840;2023-06-14T16:19:25;6.82;;;2.67;;
21806;SDS011;11065;50.786;7.840;2023-06-14T16:21:53;3.33;;;2.00;;
21806;SDS011;11065;50.786;7.840;2023-06-14T16:24:22;3.17;;;1.98;;